createdAt,value
2023-02-26T00:00:19.857Z,-1.56
2023-02-26T00:01:19.879Z,-1.83
2023-02-26T00:02:19.900Z,-2
2023-02-26T00:03:19.915Z,-1.83
2023-02-26T00:04:19.868Z,-1.67
2023-02-26T00:05:19.869Z,-2
2023-02-26T00:06:19.866Z,-1.67
2023-02-26T00:07:19.869Z,-2.17
2023-02-26T00:08:19.860Z,-1.83
2023-02-26T00:09:19.868Z,-1.83
2023-02-26T00:10:19.866Z,-1.67
2023-02-26T00:11:19.872Z,-1.67
2023-02-26T00:12:19.884Z,-1.83
2023-02-26T00:13:19.862Z,-1.67
2023-02-26T00:14:19.902Z,-1.67
2023-02-26T00:15:19.864Z,-1.83
2023-02-26T00:16:19.925Z,-2
2023-02-26T00:17:19.944Z,-2.17
2023-02-26T00:18:19.862Z,-1.83
2023-02-26T00:19:19.869Z,-1.83
2023-02-26T00:20:19.875Z,-2
2023-02-26T00:21:19.863Z,-1.83
2023-02-26T00:22:19.874Z,-1.83
2023-02-26T00:23:19.865Z,-1.83
2023-02-26T00:24:19.883Z,-1.67
2023-02-26T00:25:19.871Z,-2
2023-02-26T00:26:19.874Z,-1.83
2023-02-26T00:27:19.869Z,-1.67
2023-02-26T00:28:19.873Z,-1.83
2023-02-26T00:29:19.870Z,-2
2023-02-26T00:30:19.900Z,-2
2023-02-26T00:31:19.964Z,-2
2023-02-26T00:32:19.950Z,-1.67
2023-02-26T00:33:19.890Z,-1.83
2023-02-26T00:34:19.883Z,-2.17
2023-02-26T00:35:19.872Z,-2.44
2023-02-26T00:36:19.870Z,-2.17
2023-02-26T00:37:19.877Z,-2
2023-02-26T00:38:19.875Z,-2
2023-02-26T00:39:19.894Z,-2.17
2023-02-26T00:40:19.867Z,-1.83
2023-02-26T00:41:19.928Z,-2.17
2023-02-26T00:42:19.872Z,-1.83
2023-02-26T00:43:19.870Z,-1.83
2023-02-26T00:44:19.869Z,-2
2023-02-26T00:45:19.871Z,-1.67
2023-02-26T00:46:19.965Z,-1.67
2023-02-26T00:47:19.886Z,-2.17
2023-02-26T00:48:19.878Z,-1.83
2023-02-26T00:49:19.882Z,-2
2023-02-26T00:50:19.873Z,-1.83
2023-02-26T00:51:19.878Z,-1.83
2023-02-26T00:52:19.881Z,-1.83
2023-02-26T00:53:19.871Z,-2.28
2023-02-26T00:54:19.893Z,-1.67
2023-02-26T00:55:19.889Z,-2
2023-02-26T00:56:19.874Z,-1.83
2023-02-26T00:57:19.875Z,-1.67
2023-02-26T00:58:19.882Z,-2
2023-02-26T00:59:19.876Z,-1.83
2023-02-26T01:00:19.883Z,-1.83
2023-02-26T01:01:19.907Z,-2
2023-02-26T01:02:19.901Z,-2
2023-02-26T01:03:19.865Z,-2
2023-02-26T01:04:19.880Z,-1.67
2023-02-26T01:05:19.878Z,-1.83
2023-02-26T01:06:19.878Z,-2.17
2023-02-26T01:07:19.885Z,-2.17
2023-02-26T01:08:19.876Z,-2
2023-02-26T01:09:19.875Z,-2.17
2023-02-26T01:10:19.867Z,-1.83
2023-02-26T01:11:19.877Z,-1.83
2023-02-26T01:12:19.881Z,-2.17
2023-02-26T01:13:19.869Z,-2.17
2023-02-26T01:14:19.879Z,-2.44
2023-02-26T01:15:19.867Z,-2.17
2023-02-26T01:16:19.875Z,-2
2023-02-26T01:17:19.873Z,-1.83
2023-02-26T01:18:19.900Z,-2
2023-02-26T01:19:19.927Z,-1.83
2023-02-26T01:20:19.872Z,-2
2023-02-26T01:21:19.888Z,-1.83
2023-02-26T01:22:19.864Z,-1.83
2023-02-26T01:23:19.881Z,-2
2023-02-26T01:24:19.883Z,-1.67
2023-02-26T01:25:19.882Z,-1.83
2023-02-26T01:26:19.881Z,-2.17
2023-02-26T01:27:19.878Z,-1.67
2023-02-26T01:28:19.930Z,-2
2023-02-26T01:29:19.888Z,-2.17
2023-02-26T01:30:19.881Z,-2.17
2023-02-26T01:31:20.024Z,-2.17
2023-02-26T01:32:19.902Z,-2
2023-02-26T01:33:19.880Z,-1.83
2023-02-26T01:34:19.901Z,-1.83
2023-02-26T01:35:19.874Z,-1.83
2023-02-26T01:36:19.877Z,-2
2023-02-26T01:37:19.946Z,-2.17
2023-02-26T01:38:19.882Z,-2
2023-02-26T01:39:19.884Z,-1.83
2023-02-26T01:40:19.879Z,-2
2023-02-26T01:41:19.907Z,-2.44
2023-02-26T01:42:19.879Z,-2
2023-02-26T01:43:19.904Z,-2.17
2023-02-26T01:44:19.882Z,-2.28
2023-02-26T01:45:19.892Z,-2.17
2023-02-26T01:46:19.944Z,-2.17
2023-02-26T01:47:19.882Z,-2
2023-02-26T01:48:19.890Z,-2.17
2023-02-26T01:49:19.888Z,-2.61
2023-02-26T01:50:19.923Z,-2
2023-02-26T01:51:19.900Z,-2
2023-02-26T01:52:19.884Z,-2.44
2023-02-26T01:53:19.900Z,-1.83
2023-02-26T01:54:20.793Z,-2
2023-02-26T01:55:19.888Z,-2.17
2023-02-26T01:56:19.898Z,-2.17
2023-02-26T01:57:19.896Z,-2.17
2023-02-26T01:58:19.899Z,-2.17
2023-02-26T01:59:19.901Z,-2
2023-02-26T02:00:19.893Z,-2.17
2023-02-26T02:01:19.893Z,-2.17
2023-02-26T02:02:19.909Z,-2
2023-02-26T02:03:20.055Z,-2.17
2023-02-26T02:04:19.904Z,-2.17
2023-02-26T02:05:19.895Z,-1.83
2023-02-26T02:06:19.923Z,-1.83
2023-02-26T02:07:19.900Z,-1.83
2023-02-26T02:08:19.901Z,-1.56
2023-02-26T02:09:19.908Z,-1.56
2023-02-26T02:10:19.899Z,-1.83
2023-02-26T02:11:19.905Z,-1.83
2023-02-26T02:12:19.891Z,-1.83
2023-02-26T02:13:19.914Z,-1.67
2023-02-26T02:14:19.916Z,-1.83
2023-02-26T02:15:19.901Z,-1.67
2023-02-26T02:16:19.961Z,-1.67
2023-02-26T02:17:19.903Z,-2
2023-02-26T02:18:19.910Z,-1.67
2023-02-26T02:19:19.896Z,-1.83
2023-02-26T02:20:19.902Z,-1.83
2023-02-26T02:21:19.900Z,-1.67
2023-02-26T02:22:19.937Z,-1.83
2023-02-26T02:23:19.915Z,-1.67
2023-02-26T02:24:19.904Z,-2
2023-02-26T02:25:19.899Z,-1.83
2023-02-26T02:26:19.905Z,-1.67
2023-02-26T02:27:19.899Z,-1.67
2023-02-26T02:28:19.915Z,-1.67
2023-02-26T02:29:19.902Z,-1.67
2023-02-26T02:30:19.896Z,-2
2023-02-26T02:31:20.056Z,-1.67
2023-02-26T02:32:20.044Z,-2
2023-02-26T02:33:19.901Z,-2.44
2023-02-26T02:34:19.893Z,-2.17
2023-02-26T02:35:19.900Z,-2
2023-02-26T02:36:19.902Z,-2.17
2023-02-26T02:37:19.904Z,-2.17
2023-02-26T02:38:19.951Z,-2.17
2023-02-26T02:39:19.909Z,-1.83
2023-02-26T02:40:19.918Z,-2
2023-02-26T02:41:19.915Z,-2.17
2023-02-26T02:42:19.902Z,-1.83
2023-02-26T02:43:19.909Z,-2.17
2023-02-26T02:44:19.902Z,-2.17
2023-02-26T02:45:19.920Z,-2
2023-02-26T02:46:19.984Z,-2
2023-02-26T02:47:19.910Z,-2.28
2023-02-26T02:48:19.909Z,-2.44
2023-02-26T02:49:19.913Z,-2.28
2023-02-26T02:50:19.909Z,-2.28
2023-02-26T02:51:19.910Z,-2.17
2023-02-26T02:52:19.910Z,-2
2023-02-26T02:53:19.911Z,-2.17
2023-02-26T02:54:19.938Z,-2.17
2023-02-26T02:55:19.895Z,-1.83
2023-02-26T02:56:19.923Z,-2.17
2023-02-26T02:57:19.913Z,-2.17
2023-02-26T02:58:19.924Z,-2.17
2023-02-26T02:59:19.903Z,-2.28
2023-02-26T03:00:19.930Z,-2
2023-02-26T03:01:20.007Z,-2.17
2023-02-26T03:02:19.951Z,-2.61
2023-02-26T03:03:19.907Z,-2.28
2023-02-26T03:04:19.918Z,-2.17
2023-02-26T03:05:19.912Z,-2
2023-02-26T03:06:19.952Z,-2.17
2023-02-26T03:07:19.904Z,-2.61
2023-02-26T03:08:19.920Z,-2.72
2023-02-26T03:09:19.935Z,-2.28
2023-02-26T03:10:19.940Z,-2.28
2023-02-26T03:11:19.929Z,-2.17
2023-02-26T03:12:19.917Z,-2.17
2023-02-26T03:13:19.927Z,-2.28
2023-02-26T03:14:19.919Z,-2.28
2023-02-26T03:15:19.920Z,-2.44
2023-02-26T03:16:19.960Z,-2.44
2023-02-26T03:17:19.912Z,-2.44
2023-02-26T03:18:19.930Z,-2.44
2023-02-26T03:19:19.916Z,-2.44
2023-02-26T03:20:19.920Z,-2.61
2023-02-26T03:21:19.923Z,-2.28
2023-02-26T03:22:19.922Z,-2.61
2023-02-26T03:23:19.919Z,-2.28
2023-02-26T03:24:19.918Z,-2.61
2023-02-26T03:25:19.924Z,-2.28
2023-02-26T03:26:19.955Z,-2.89
2023-02-26T03:27:19.923Z,-2.72
2023-02-26T03:28:19.933Z,-2.44
2023-02-26T03:29:19.922Z,-2.61
2023-02-26T03:30:19.929Z,-3.06
2023-02-26T03:31:20.004Z,-2.61
2023-02-26T03:32:19.999Z,-2.61
2023-02-26T03:33:19.922Z,-2.72
2023-02-26T03:34:19.932Z,-2.61
2023-02-26T03:35:19.928Z,-2.72
2023-02-26T03:36:19.929Z,-2.61
2023-02-26T03:37:19.924Z,-2.72
2023-02-26T03:38:19.926Z,-2.72
2023-02-26T03:39:19.943Z,-2.61
2023-02-26T03:40:19.930Z,-2.72
2023-02-26T03:41:19.937Z,-2.72
2023-02-26T03:42:19.962Z,-2.61
2023-02-26T03:43:19.925Z,-2.61
2023-02-26T03:44:19.920Z,-3.06
2023-02-26T03:45:19.910Z,-2.61
2023-02-26T03:46:19.978Z,-2.89
2023-02-26T03:47:19.925Z,-2.72
2023-02-26T03:48:19.935Z,-2.89
2023-02-26T03:49:19.939Z,-3.17
2023-02-26T03:50:19.941Z,-2.89
2023-02-26T03:51:19.927Z,-2.61
2023-02-26T03:52:19.937Z,-3.06
2023-02-26T03:53:19.929Z,-2.61
2023-02-26T03:54:19.934Z,-2.72
2023-02-26T03:55:19.929Z,-2.61
2023-02-26T03:56:19.944Z,-3.06
2023-02-26T03:57:19.931Z,-2.61
2023-02-26T03:58:19.952Z,-2.72
2023-02-26T03:59:19.934Z,-2.61
2023-02-26T04:00:19.931Z,-2.61
2023-02-26T04:01:19.925Z,-2.89
2023-02-26T04:02:20.026Z,-3.17
2023-02-26T04:03:19.937Z,-3.06
2023-02-26T04:04:19.999Z,-2.89
2023-02-26T04:05:19.940Z,-3.06
2023-02-26T04:06:19.932Z,-2.28
2023-02-26T04:07:19.930Z,-2.44
2023-02-26T04:08:19.929Z,-2.28
2023-02-26T04:09:19.939Z,-2.89
2023-02-26T04:10:19.938Z,-3.06
2023-02-26T04:11:19.939Z,-2.61
2023-02-26T04:12:19.935Z,-2.61
2023-02-26T04:13:19.928Z,-2.61
2023-02-26T04:14:19.951Z,-2.72
2023-02-26T04:15:19.937Z,-2.72
2023-02-26T04:16:19.938Z,-2.61
2023-02-26T04:17:19.930Z,-2.61
2023-02-26T04:18:19.931Z,-2.72
2023-02-26T04:19:19.934Z,-3.06
2023-02-26T04:20:19.939Z,-2.61
2023-02-26T04:21:19.946Z,-2.61
2023-02-26T04:22:19.939Z,-2.72
2023-02-26T04:23:19.942Z,-2.72
2023-02-26T04:24:19.946Z,-2.72
2023-02-26T04:25:19.941Z,-2.89
2023-02-26T04:26:19.936Z,-2.72
2023-02-26T04:27:19.947Z,-2.72
2023-02-26T04:28:19.938Z,-3.06
2023-02-26T04:29:19.935Z,-3.06
2023-02-26T04:30:19.952Z,-3.28
2023-02-26T04:31:20.560Z,-3.28
2023-02-26T04:32:20.020Z,-3.06
2023-02-26T04:33:19.936Z,-2.72
2023-02-26T04:34:19.926Z,-2.89
2023-02-26T04:35:19.936Z,-2.61
2023-02-26T04:36:19.942Z,-2.61
2023-02-26T04:37:19.944Z,-2.61
2023-02-26T04:38:19.935Z,-2.72
2023-02-26T04:39:19.941Z,-3.06
2023-02-26T04:40:19.933Z,-2.61
2023-02-26T04:41:19.941Z,-2.72
2023-02-26T04:42:19.952Z,-3.06
2023-02-26T04:43:19.926Z,-3.28
2023-02-26T04:44:19.937Z,-2.72
2023-02-26T04:45:19.919Z,-3.17
2023-02-26T04:46:19.972Z,-2.89
2023-02-26T04:47:19.946Z,-3.17
2023-02-26T04:48:19.947Z,-2.89
2023-02-26T04:49:19.943Z,-3.06
2023-02-26T04:50:19.922Z,-3.06
2023-02-26T04:51:19.930Z,-3.17
2023-02-26T04:52:20.005Z,-2.89
2023-02-26T04:53:19.936Z,-2.72
2023-02-26T04:54:19.930Z,-2.89
2023-02-26T04:55:19.933Z,-2.61
2023-02-26T04:56:19.930Z,-2.89
2023-02-26T04:57:19.935Z,-3.06
2023-02-26T04:58:19.943Z,-3.06
2023-02-26T04:59:19.937Z,-3.06
2023-02-26T05:00:19.947Z,-3.44
2023-02-26T05:01:19.971Z,-3.06
2023-02-26T05:02:19.958Z,-3.06
2023-02-26T05:03:19.937Z,-3.06
2023-02-26T05:04:19.942Z,-3.06
2023-02-26T05:05:19.933Z,-2.89
2023-02-26T05:06:19.937Z,-3.17
2023-02-26T05:07:19.949Z,-3.06
2023-02-26T05:08:19.943Z,-3.28
2023-02-26T05:09:19.946Z,-3.28
2023-02-26T05:10:19.942Z,-3.06
2023-02-26T05:11:19.946Z,-3.28
2023-02-26T05:12:19.944Z,-3.28
2023-02-26T05:13:19.935Z,-3.06
2023-02-26T05:14:19.954Z,-3.06
2023-02-26T05:15:19.942Z,-2.72
2023-02-26T05:16:20.027Z,-2.89
2023-02-26T05:17:19.944Z,-2.72
2023-02-26T05:18:19.963Z,-3.17
2023-02-26T05:19:19.939Z,-2.89
2023-02-26T05:20:19.949Z,-3.28
2023-02-26T05:21:19.944Z,-3.17
2023-02-26T05:22:19.947Z,-2.89
2023-02-26T05:23:19.947Z,-2.89
2023-02-26T05:24:19.944Z,-3.06
2023-02-26T05:25:19.934Z,-3.17
2023-02-26T05:26:19.956Z,-3.06
2023-02-26T05:27:19.956Z,-2.89
2023-02-26T05:28:19.953Z,-2.89
2023-02-26T05:29:19.940Z,-2.89
2023-02-26T05:30:19.945Z,-2.89
2023-02-26T05:31:19.973Z,-2.72
2023-02-26T05:32:19.971Z,-2.72
2023-02-26T05:33:19.958Z,-2.89
2023-02-26T05:34:19.988Z,-2.89
2023-02-26T05:35:19.945Z,-2.89
2023-02-26T05:36:20.008Z,-3.06
2023-02-26T05:37:19.949Z,-2.72
2023-02-26T05:38:19.952Z,-3.06
2023-02-26T05:39:19.946Z,-3.17
2023-02-26T05:40:19.950Z,-3.06
2023-02-26T05:41:19.971Z,-3.17
2023-02-26T05:42:19.947Z,-2.89
2023-02-26T05:43:19.948Z,-2.72
2023-02-26T05:44:19.956Z,-2.61
2023-02-26T05:45:19.975Z,-2.89
2023-02-26T05:46:19.994Z,-2.72
2023-02-26T05:47:19.952Z,-2.72
2023-02-26T05:48:19.951Z,-3.06
2023-02-26T05:49:20.014Z,-2.89
2023-02-26T05:50:19.983Z,-3.28
2023-02-26T05:51:19.967Z,-3.17
2023-02-26T05:52:19.949Z,-2.72
2023-02-26T05:53:19.962Z,-2.61
2023-02-26T05:54:19.953Z,-3.61
2023-02-26T05:55:19.948Z,-3.06
2023-02-26T05:56:19.953Z,-2.89
2023-02-26T05:57:19.950Z,-3.06
2023-02-26T05:58:19.948Z,-3.06
2023-02-26T05:59:19.956Z,-2.89
2023-02-26T06:00:19.957Z,-2.72
2023-02-26T06:01:19.958Z,-3.17
2023-02-26T06:02:19.949Z,-2.89
2023-02-26T06:03:19.990Z,-2.72
2023-02-26T06:04:19.959Z,-3.06
2023-02-26T06:05:19.960Z,-3.17
2023-02-26T06:06:19.980Z,-3.06
2023-02-26T06:07:19.950Z,-3.17
2023-02-26T06:08:19.975Z,-2.89
2023-02-26T06:09:19.964Z,-3.17
2023-02-26T06:10:19.961Z,-2.89
2023-02-26T06:11:19.950Z,-2.89
2023-02-26T06:12:19.953Z,-3.06
2023-02-26T06:13:19.950Z,-3.17
2023-02-26T06:14:19.954Z,-3.06
2023-02-26T06:15:19.963Z,-3.06
2023-02-26T06:16:19.989Z,-3.06
2023-02-26T06:17:19.961Z,-3.17
2023-02-26T06:18:19.972Z,-3.06
2023-02-26T06:19:19.954Z,-3.06
2023-02-26T06:20:19.964Z,-3.06
2023-02-26T06:21:19.960Z,-2.89
2023-02-26T06:22:19.989Z,-3.06
2023-02-26T06:23:19.980Z,-3.28
2023-02-26T06:24:19.972Z,-3.06
2023-02-26T06:25:19.960Z,-3.28
2023-02-26T06:26:21.535Z,-3.06
2023-02-26T06:27:19.957Z,-3.28
2023-02-26T06:28:19.964Z,-3.28
2023-02-26T06:29:19.965Z,-3.44
2023-02-26T06:30:19.951Z,-3.28
2023-02-26T06:31:20.033Z,-3.06
2023-02-26T06:32:20.122Z,-2.89
2023-02-26T06:33:19.973Z,-3.44
2023-02-26T06:34:19.958Z,-3.06
2023-02-26T06:35:19.968Z,-3.06
2023-02-26T06:36:19.966Z,-3.28
2023-02-26T06:37:19.970Z,-3.17
2023-02-26T06:38:19.997Z,-2.61
2023-02-26T06:39:19.974Z,-2.61
2023-02-26T06:40:19.974Z,-2.72
2023-02-26T06:41:19.970Z,-2.89
2023-02-26T06:42:20.265Z,-2.72
2023-02-26T06:43:19.970Z,-2.61
2023-02-26T06:44:19.973Z,-2.89
2023-02-26T06:45:19.979Z,-2.89
2023-02-26T06:46:19.979Z,-3.06
2023-02-26T06:47:19.973Z,-3.28
2023-02-26T06:48:19.974Z,-2.72
2023-02-26T06:49:20.015Z,-2.61
2023-02-26T06:50:19.978Z,-2.72
2023-02-26T06:51:19.976Z,-2.61
2023-02-26T06:52:19.992Z,-2.44
2023-02-26T06:53:19.981Z,-2.61
2023-02-26T06:54:19.994Z,-2.44
2023-02-26T06:55:19.971Z,-2.28
2023-02-26T06:56:20.012Z,-2.28
2023-02-26T06:57:19.989Z,-2.61
2023-02-26T06:58:19.975Z,-3.28
2023-02-26T06:59:19.984Z,-2.28
2023-02-26T07:00:20.067Z,-2.61
2023-02-26T07:01:20.030Z,-2.44
2023-02-26T07:02:20.081Z,-3.06
2023-02-26T07:03:19.991Z,-2.61
2023-02-26T07:04:20.769Z,-2.61
2023-02-26T07:05:19.985Z,-2.72
2023-02-26T07:06:27.212Z,-2.28
2023-02-26T07:07:19.987Z,-2.72
2023-02-26T07:08:19.984Z,-2.44
2023-02-26T07:09:20.163Z,-2.72
2023-02-26T07:10:20.007Z,-2.44
2023-02-26T07:11:19.973Z,-2.61
2023-02-26T07:12:19.984Z,-2.44
2023-02-26T07:13:19.979Z,-2.44
2023-02-26T07:14:19.989Z,-2.61
2023-02-26T07:15:19.993Z,-2.61
2023-02-26T07:16:20.054Z,-2.17
2023-02-26T07:17:19.981Z,-1.83
2023-02-26T07:18:19.996Z,-1.83
2023-02-26T07:19:19.979Z,-2.28
2023-02-26T07:20:19.991Z,-2
2023-02-26T07:21:19.989Z,-1.83
2023-02-26T07:22:21.829Z,-2.17
2023-02-26T07:23:19.992Z,-2.44
2023-02-26T07:24:19.992Z,-2.17
2023-02-26T07:25:19.979Z,-1.83
2023-02-26T07:26:20.018Z,-2.17
2023-02-26T07:27:20.005Z,-1.83
2023-02-26T07:28:19.988Z,-2.28
2023-02-26T07:29:20.008Z,-2.44
2023-02-26T07:30:19.999Z,-2.17
2023-02-26T07:31:20.141Z,-2.17
2023-02-26T07:32:20.065Z,-2
2023-02-26T07:33:20.002Z,-2.17
2023-02-26T07:34:19.984Z,-2.28
2023-02-26T07:35:19.998Z,-2.28
2023-02-26T07:36:19.992Z,-1.67
2023-02-26T07:37:19.985Z,-1.83
2023-02-26T07:38:20.000Z,-1.83
2023-02-26T07:39:19.992Z,-2
2023-02-26T07:40:19.985Z,-1.83
2023-02-26T07:41:19.986Z,-2.17
2023-02-26T07:42:20.007Z,-2.44
2023-02-26T07:43:19.978Z,-1.83
2023-02-26T07:44:19.987Z,-1.67
2023-02-26T07:45:19.984Z,-1.83
2023-02-26T07:46:20.025Z,-2.28
2023-02-26T07:47:19.992Z,-2
2023-02-26T07:48:20.001Z,-1.44
2023-02-26T07:49:19.994Z,-1.11
2023-02-26T07:50:19.995Z,-1
2023-02-26T07:51:20.000Z,-1.44
2023-02-26T07:53:19.997Z,-1.67
2023-02-26T07:54:19.984Z,-2.17
2023-02-26T07:55:19.991Z,-2
2023-02-26T07:56:19.994Z,-1.44
2023-02-26T07:57:20.011Z,-0.83
2023-02-26T07:58:20.030Z,-0.83
2023-02-26T07:59:20.005Z,-0.56
2023-02-26T08:00:19.987Z,-0.56
2023-02-26T08:01:20.040Z,0
2023-02-26T08:02:19.995Z,0.28
2023-02-26T08:03:19.991Z,-0.28
2023-02-26T08:04:20.070Z,-0.28
2023-02-26T08:05:19.991Z,-0.39
2023-02-26T08:06:20.008Z,-0.39
2023-02-26T08:07:19.998Z,-0.28
2023-02-26T08:08:20.029Z,-0.56
2023-02-26T08:09:19.995Z,-0.39
2023-02-26T08:10:19.995Z,-0.83
2023-02-26T08:11:19.995Z,-0.83
2023-02-26T08:12:20.002Z,-0.83
2023-02-26T08:13:20.004Z,-0.83
2023-02-26T08:14:20.020Z,-1.11
2023-02-26T08:15:20.007Z,-1.28
2023-02-26T08:16:20.001Z,-0.83
2023-02-26T08:17:20.022Z,-0.56
2023-02-26T08:18:20.010Z,-0.67
2023-02-26T08:19:20.000Z,-0.56
2023-02-26T08:20:20.018Z,-1.11
2023-02-26T08:21:19.994Z,-1.44
2023-02-26T08:22:19.997Z,-1.11
2023-02-26T08:23:20.019Z,-1.11
2023-02-26T08:24:20.007Z,-1.28
2023-02-26T08:25:20.001Z,-0.56
2023-02-26T08:26:20.004Z,-1
2023-02-26T08:27:20.001Z,-0.83
2023-02-26T08:28:19.989Z,-0.39
2023-02-26T08:29:20.005Z,-0.67
2023-02-26T08:30:20.031Z,-1.28
2023-02-26T08:31:20.052Z,-1.28
2023-02-26T08:32:20.224Z,-1.11
2023-02-26T08:33:20.001Z,-0.67
2023-02-26T08:34:19.997Z,-0.83
2023-02-26T08:35:19.992Z,-0.39
2023-02-26T08:36:20.001Z,-0.67
2023-02-26T08:37:20.001Z,-0.39
2023-02-26T08:38:20.101Z,-0.39
2023-02-26T08:39:19.999Z,-0.67
2023-02-26T08:40:20.003Z,-0.67
2023-02-26T08:41:20.003Z,-0.56
2023-02-26T08:42:19.991Z,-1
2023-02-26T08:43:20.004Z,-0.39
2023-02-26T08:44:20.008Z,-0.39
2023-02-26T08:45:20.034Z,-0.83
2023-02-26T08:46:20.072Z,-0.67
2023-02-26T08:47:28.332Z,-0.56
2023-02-26T08:48:20.019Z,0
2023-02-26T08:49:20.008Z,0
2023-02-26T08:50:20.018Z,-0.39
2023-02-26T08:51:20.017Z,-0.39
2023-02-26T08:52:20.002Z,0.28
2023-02-26T08:53:20.004Z,-0.28
2023-02-26T08:54:20.016Z,-0.17
2023-02-26T08:55:20.019Z,-0.39
2023-02-26T08:56:20.010Z,-0.39
2023-02-26T08:57:20.023Z,-0.28
2023-02-26T08:58:20.017Z,-0.17
2023-02-26T08:59:20.040Z,-0.17
2023-02-26T09:00:20.018Z,-0.39
2023-02-26T09:01:20.040Z,0
2023-02-26T09:02:20.033Z,0
2023-02-26T09:03:20.023Z,-0.17
2023-02-26T09:04:20.023Z,0
2023-02-26T09:05:20.020Z,0.28
2023-02-26T09:06:20.022Z,0.44
2023-02-26T09:07:20.020Z,0.28
2023-02-26T09:08:20.016Z,0.44
2023-02-26T09:09:20.019Z,0.17
2023-02-26T09:10:20.016Z,0.17
2023-02-26T09:11:20.016Z,-0.39
2023-02-26T09:12:20.017Z,-0.28
2023-02-26T09:13:20.018Z,-0.67
2023-02-26T09:14:20.016Z,-0.28
2023-02-26T09:15:20.051Z,-0.17
2023-02-26T09:16:20.115Z,0.17
2023-02-26T09:17:20.018Z,0.44
2023-02-26T09:18:20.038Z,0.17
2023-02-26T09:19:20.011Z,0.61
2023-02-26T09:20:20.014Z,0.72
2023-02-26T09:21:20.023Z,0.44
2023-02-26T09:22:20.052Z,0
2023-02-26T09:23:20.020Z,-0.17
2023-02-26T09:24:20.032Z,0.44
2023-02-26T09:25:20.021Z,0.72
2023-02-26T09:26:20.012Z,0.44
2023-02-26T09:27:20.020Z,0.28
2023-02-26T09:28:20.055Z,0.72
2023-02-26T09:29:20.022Z,0.61
2023-02-26T09:30:20.018Z,1.06
2023-02-26T09:31:20.092Z,0.61
2023-02-26T09:32:20.141Z,0.61
2023-02-26T09:33:20.044Z,0.28
2023-02-26T09:34:20.051Z,0.17
2023-02-26T09:35:20.018Z,0.28
2023-02-26T09:36:20.029Z,0.28
2023-02-26T09:37:20.042Z,0.61
2023-02-26T09:38:20.024Z,0.44
2023-02-26T09:39:20.033Z,0.28
2023-02-26T09:40:20.025Z,0.44
2023-02-26T09:41:20.022Z,0.89
2023-02-26T09:42:20.025Z,1.06
2023-02-26T09:43:20.032Z,0.44
2023-02-26T09:44:20.033Z,1.33
2023-02-26T09:45:20.050Z,0.44
2023-02-26T09:46:20.025Z,0.17
2023-02-26T09:47:20.025Z,0
2023-02-26T09:48:20.038Z,0.44
2023-02-26T09:49:20.036Z,0.72
2023-02-26T09:50:20.051Z,0.61
2023-02-26T09:51:20.023Z,1.06
2023-02-26T09:52:20.026Z,0.89
2023-02-26T09:53:20.031Z,0.89
2023-02-26T09:54:20.039Z,0
2023-02-26T09:55:20.036Z,-0.28
2023-02-26T09:56:20.047Z,-0.39
2023-02-26T09:57:20.031Z,0
2023-02-26T09:58:20.028Z,0
2023-02-26T09:59:20.048Z,-0.39
2023-02-26T10:00:20.050Z,-0.17
2023-02-26T10:01:20.055Z,0
2023-02-26T10:02:20.053Z,0
2023-02-26T10:03:20.041Z,-0.17
2023-02-26T10:04:20.679Z,0.17
2023-02-26T10:05:20.036Z,0.17
2023-02-26T10:06:20.062Z,0
2023-02-26T10:07:20.038Z,-0.28
2023-02-26T10:08:20.049Z,-0.39
2023-02-26T10:09:20.050Z,-0.56
2023-02-26T10:10:20.184Z,-0.67
2023-02-26T10:11:20.048Z,-0.83
2023-02-26T10:12:20.040Z,-0.67
2023-02-26T10:13:20.042Z,-0.83
2023-02-26T10:14:20.036Z,-0.39
2023-02-26T10:15:20.057Z,-0.39
2023-02-26T10:16:20.088Z,-0.39
2023-02-26T10:17:20.061Z,-0.56
2023-02-26T10:18:20.041Z,-0.56
2023-02-26T10:19:20.046Z,-0.28
2023-02-26T10:20:20.171Z,0.28
2023-02-26T10:21:20.054Z,0.44
2023-02-26T10:22:20.096Z,0.44
2023-02-26T10:23:20.048Z,0.61
2023-02-26T10:24:20.050Z,0.28
2023-02-26T10:25:20.049Z,0.28
2023-02-26T10:26:20.044Z,0.28
2023-02-26T10:27:20.049Z,0.44
2023-02-26T10:28:20.053Z,0.72
2023-02-26T10:29:22.672Z,0.44
2023-02-26T10:30:20.041Z,0.89
2023-02-26T10:31:20.070Z,1.17
2023-02-26T10:32:20.160Z,0.61
2023-02-26T10:33:20.038Z,1.5
2023-02-26T10:34:20.038Z,1.61
2023-02-26T10:35:20.048Z,1.17
2023-02-26T10:36:20.058Z,1.33
2023-02-26T10:37:20.043Z,1.06
2023-02-26T10:38:20.096Z,1.06
2023-02-26T10:39:20.037Z,1.17
2023-02-26T10:40:20.040Z,1.33
2023-02-26T10:41:20.046Z,1.72
2023-02-26T10:42:20.041Z,1.72
2023-02-26T10:43:20.059Z,1.72
2023-02-26T10:44:20.041Z,1.89
2023-02-26T10:45:20.040Z,1.06
2023-02-26T10:46:20.070Z,1.33
2023-02-26T10:47:20.053Z,1.33
2023-02-26T10:48:20.044Z,1.33
2023-02-26T10:49:20.044Z,1.33
2023-02-26T10:50:20.048Z,1.17
2023-02-26T10:51:20.038Z,1.06
2023-02-26T10:52:20.050Z,1.33
2023-02-26T10:53:20.047Z,1.61
2023-02-26T10:54:20.078Z,1.17
2023-02-26T10:55:20.114Z,0.61
2023-02-26T10:56:20.043Z,0.72
2023-02-26T10:57:20.040Z,0.72
2023-02-26T10:58:20.048Z,0.72
2023-02-26T10:59:20.056Z,0.72
2023-02-26T11:00:20.042Z,-0.28
2023-02-26T11:01:20.131Z,-0.28
2023-02-26T11:02:20.082Z,0
2023-02-26T11:03:20.044Z,-0.39
2023-02-26T11:04:20.052Z,0
2023-02-26T11:05:20.042Z,0.44
2023-02-26T11:06:20.077Z,0.44
2023-02-26T11:07:20.034Z,0.89
2023-02-26T11:08:20.052Z,0.44
2023-02-26T11:09:20.118Z,0
2023-02-26T11:10:20.086Z,1.33
2023-02-26T11:11:20.046Z,1.33
2023-02-26T11:12:20.068Z,0.56
2023-02-26T11:13:20.052Z,0.28
2023-02-26T11:14:21.640Z,1.06
2023-02-26T11:15:20.065Z,0.44
2023-02-26T11:16:20.106Z,0.61
2023-02-26T11:17:20.044Z,0.28
2023-02-26T11:18:20.063Z,0.44
2023-02-26T11:19:20.037Z,0.44
2023-02-26T11:20:20.037Z,0.44
2023-02-26T11:21:20.043Z,0
2023-02-26T11:22:20.040Z,0.11
2023-02-26T11:23:20.048Z,-0.17
2023-02-26T11:24:20.052Z,-0.17
2023-02-26T11:25:20.045Z,0
2023-02-26T11:26:20.077Z,-0.28
2023-02-26T11:27:20.061Z,0
2023-02-26T11:28:20.057Z,-0.28
2023-02-26T11:29:20.051Z,0.28
2023-02-26T11:30:20.062Z,0.17
2023-02-26T11:31:20.153Z,-0.06
2023-02-26T11:32:20.189Z,-0.17
2023-02-26T11:33:20.060Z,-0.22
2023-02-26T11:34:20.062Z,-0.39
2023-02-26T11:35:20.056Z,-0.39
2023-02-26T11:36:20.062Z,-0.28
2023-02-26T11:37:20.059Z,0
2023-02-26T11:38:20.139Z,0.17
2023-02-26T11:39:20.044Z,0.17
2023-02-26T11:40:20.046Z,0.44
2023-02-26T11:41:20.050Z,0.61
2023-02-26T11:42:20.103Z,0.89
2023-02-26T11:43:20.052Z,0.72
2023-02-26T11:44:20.067Z,0.89
2023-02-26T11:45:20.078Z,1.06
2023-02-26T11:46:20.084Z,0.61
2023-02-26T11:47:20.057Z,0.89
2023-02-26T11:48:20.068Z,0.89
2023-02-26T11:49:20.065Z,1.33
2023-02-26T11:50:20.059Z,1.17
2023-02-26T11:51:20.052Z,1.33
2023-02-26T11:52:20.062Z,1.5
2023-02-26T11:53:20.050Z,1.17
2023-02-26T11:54:20.059Z,0.44
2023-02-26T11:55:20.045Z,0.39
2023-02-26T11:56:20.063Z,0.44
2023-02-26T11:57:20.059Z,0.44
2023-02-26T11:58:20.185Z,0.72
2023-02-26T11:59:20.054Z,0.89
2023-02-26T12:00:20.057Z,0.72
2023-02-26T12:01:20.046Z,0.89
2023-02-26T12:02:20.124Z,0.89
2023-02-26T12:03:20.139Z,0.89
2023-02-26T12:04:20.054Z,0.72
2023-02-26T12:05:20.049Z,0.17
2023-02-26T12:06:20.055Z,0.61
2023-02-26T12:07:20.056Z,1.06
2023-02-26T12:08:20.049Z,0.72
2023-02-26T12:09:20.055Z,0.17
2023-02-26T12:10:20.050Z,0.94
2023-02-26T12:11:20.057Z,0.89
2023-02-26T12:12:20.054Z,0.72
2023-02-26T12:13:20.063Z,0.89
2023-02-26T12:14:20.081Z,0.89
2023-02-26T12:15:20.066Z,0.89
2023-02-26T12:16:20.081Z,0.44
2023-02-26T12:17:20.048Z,0.89
2023-02-26T12:18:20.054Z,0.89
2023-02-26T12:19:20.045Z,0.28
2023-02-26T12:20:20.220Z,0.89
2023-02-26T12:21:20.050Z,0.61
2023-02-26T12:22:20.053Z,1.33
2023-02-26T12:23:20.059Z,1.06
2023-02-26T12:24:20.057Z,1.33
2023-02-26T12:25:20.060Z,1.5
2023-02-26T12:26:20.053Z,1.72
2023-02-26T12:27:20.054Z,1.06
2023-02-26T12:28:20.074Z,1.06
2023-02-26T12:29:20.058Z,0.89
2023-02-26T12:30:20.086Z,0.72
2023-02-26T12:31:20.215Z,0.72
2023-02-26T12:32:20.261Z,0.44
2023-02-26T12:33:20.076Z,0.17
2023-02-26T12:34:20.088Z,0.94
2023-02-26T12:35:20.073Z,0.83
2023-02-26T12:36:20.066Z,0.72
2023-02-26T12:37:20.077Z,0.72
2023-02-26T12:38:20.083Z,0.89
2023-02-26T12:39:20.060Z,0.83
2023-02-26T12:40:20.072Z,0.5
2023-02-26T12:41:20.059Z,0.83
2023-02-26T12:42:20.070Z,0.67
2023-02-26T12:43:20.070Z,0.89
2023-02-26T12:44:20.069Z,1.17
2023-02-26T12:45:20.076Z,1.61
2023-02-26T12:46:20.147Z,1.72
2023-02-26T12:47:20.083Z,1.11
2023-02-26T12:48:20.079Z,1.33
2023-02-26T12:49:20.076Z,1.33
2023-02-26T12:50:20.087Z,1.06
2023-02-26T12:51:20.078Z,1.5
2023-02-26T12:52:20.074Z,1.28
2023-02-26T12:53:20.080Z,0.83
2023-02-26T12:54:20.076Z,1
2023-02-26T12:55:20.088Z,0.72
2023-02-26T12:56:20.071Z,1.11
2023-02-26T12:57:20.077Z,1.78
2023-02-26T12:58:20.085Z,1.94
2023-02-26T12:59:20.088Z,1.5
2023-02-26T13:00:20.071Z,1.11
2023-02-26T13:01:20.085Z,1
2023-02-26T13:02:20.113Z,1.11
2023-02-26T13:03:20.098Z,1.44
2023-02-26T13:04:20.090Z,1
2023-02-26T13:05:20.070Z,0.72
2023-02-26T13:06:20.079Z,0.72
2023-02-26T13:07:20.088Z,0.83
2023-02-26T13:08:20.076Z,1.28